Latest Weather Observations for Tuggeranong

IDN60801

Issued at 4:33 pm EST Thursday 28 July 2016 (issued every 30 minutes, with the page automatically refreshed every 10 minutes)

About weather observations | Map of weather stations | Latest weather observations for NSW | Other Formats
Station Details ID: 070339 Name: TUGGERANONG (ISABELLA PLAINS) AWS Lat: -35.42 Lon: 149.09 Height: 586.7 m
Data from the previous 72 hours. | See also: Recent months at Tuggeranong
Date/Time
EST
Temp
°C
App
Temp
°C
Dew
Point
°C
Rel
Hum
%
Delta-T
°C
Wind Press
QNH
hPa
Press
MSL
hPa
Rain since
9am
mm
Dir  Spd
km/h
Gust
km/h
Spd
kts
Gust
kts
28/04:30pm 11.4 7.1 0.8 48 4.5 WSW 13 22 7 12 1021.8 1022.9 0.0
28/04:00pm 12.7 8.9 2.0 48 4.8 NW 11 19 6 10 1021.8 1022.9 0.0
28/03:30pm 13.0 7.8 0.4 42 5.5 W 17 28 9 15 1021.7 1022.8 0.0
28/03:00pm 13.1 8.0 0.8 43 5.4 W 17 24 9 13 1021.6 1022.7 0.0
28/02:30pm 13.0 7.3 0.7 43 5.4 WNW 20 28 11 15 1021.5 1022.6 0.0
28/02:00pm 13.0 7.9 0.7 43 5.3 WNW 17 32 9 17 1021.5 1022.6 0.0
28/01:30pm 12.8 8.5 3.2 52 4.4 NW 15 24 8 13 1021.4 1022.5 0.0
28/01:00pm 12.5 8.7 1.8 48 4.7 SW 11 17 6 9 1022.0 1023.1 0.0
28/12:30pm 12.1 9.0 3.6 56 3.9 WSW 9 15 5 8 1022.4 1023.6 0.0
28/12:00pm 11.7 9.0 3.5 57 3.7 SW 7 13 4 7 1022.7 1023.9 0.0
28/11:30am 11.2 7.9 2.5 55 3.9 NW 9 15 5 8 1023.2 1024.3 0.0
28/11:00am 9.7 6.3 2.1 59 3.3 N 9 15 5 8 1023.7 1024.8 0.0
28/10:30am 8.8 5.6 2.8 66 2.6 N 9 15 5 8 1024.0 1025.2 0.0
28/10:00am 7.1 4.0 1.6 68 2.3 NW 7 13 4 7 1024.2 1025.4 0.0
28/09:30am 6.0 3.1 1.7 74 1.8 NNW 6 9 3 5 1024.0 1025.2 0.0
28/09:00am 4.6 2.9 1.8 82 1.1 CALM 0 0 0 0 1024.1 1025.3 0.4
28/08:30am 2.5 0.7 1.5 93 0.4 CALM 0 0 0 0 1024.0 1025.2 0.4
28/08:00am 0.2 -1.8 0.1 99 0.0 CALM 0 0 0 0 1023.8 1025.0 0.4
28/07:30am -1.4 -3.6 -1.8 97 0.1 CALM 0 0 0 0 1023.8 1025.0 0.4
28/07:00am -1.3 -3.5 -1.9 96 0.2 CALM 0 0 0 0 1023.6 1024.7 0.4
28/06:30am -1.1 -3.3 -1.9 94 0.2 CALM 0 0 0 0 1023.1 1024.2 0.4
28/06:00am -0.5 -2.7 -1.5 93 0.3 CALM 0 0 0 0 1022.9 1024.0 0.4
28/05:30am 0.1 -3.1 -0.7 94 0.3 E 6 7 3 4 1022.4 1023.6 0.4
28/05:00am 0.3 -2.9 -0.7 93 0.4 E 6 7 3 4 1022.0 1023.1 0.4
28/04:30am 0.8 -2.4 -0.6 90 0.5 E 6 9 3 5 1021.6 1022.7 0.4
28/04:00am 1.2 -2.2 -0.3 90 0.6 E 7 9 4 5 1021.4 1022.5 0.4
28/03:30am 1.5 -2.2 -0.1 89 0.6 ESE 9 13 5 7 1021.1 1022.2 0.4
28/03:00am 1.4 -1.7 -0.1 90 0.6 NE 6 9 3 5 1020.8 1021.9 0.4
28/02:30am 2.2 -0.8 0.7 90 0.6 ENE 6 11 3 6 1021.1 1022.2 0.4
28/02:00am 2.3 -0.7 0.7 89 0.6 ESE 6 9 3 5 1020.9 1022.1 0.4
28/01:30am 3.2 1.4 1.3 87 0.8 CALM 0 0 0 0 1021.1 1022.2 0.4
28/01:00am 3.4 0.6 1.8 89 0.6 W 6 15 3 8 1020.8 1021.9 0.4
28/12:30am 3.4 0.5 1.3 86 0.8 ENE 6 7 3 4 1020.5 1021.6 0.4
28/12:00am 4.9 2.9 2.1 82 1.2 NW 2 9 1 5 1020.6 1021.7 0.4
 
Date/Time
EST
Temp
°C
App
Temp
°C
Dew
Point
°C
Rel
Hum
%
Delta-T
°C
Wind Press
QNH
hPa
Press
MSL
hPa
Rain since
9am
mm
Dir  Spd
km/h
Gust
km/h
Spd
kts
Gust
kts
27/11:30pm 6.5 3.8 2.6 76 1.7 WSW 6 9 3 5 1020.8 1021.9 0.4
27/11:00pm 7.2 2.5 3.1 75 1.8 NW 17 22 9 12 1020.5 1021.6 0.4
27/10:30pm 6.5 3.3 2.8 77 1.6 ENE 9 15 5 8 1019.8 1020.9 0.4
27/10:00pm 7.4 3.4 2.7 72 2.0 W 13 20 7 11 1019.4 1020.4 0.4
27/09:30pm 7.5 3.6 3.2 74 1.9 N 13 19 7 10 1019.4 1020.4 0.4
27/09:00pm 7.7 3.9 3.7 76 1.8 NNE 13 19 7 10 1019.0 1020.1 0.4
27/08:30pm 7.8 4.0 3.8 76 1.8 NNE 13 20 7 11 1019.1 1020.2 0.4
27/08:00pm 8.1 3.8 3.4 72 2.1 N 15 20 8 11 1018.9 1020.0 0.4
27/07:30pm 8.3 4.7 3.2 70 2.3 N 11 17 6 9 1018.6 1019.7 0.4
27/07:00pm 8.2 4.6 2.9 69 2.3 N 11 19 6 10 1018.3 1019.4 0.4
27/06:30pm 8.3 4.2 2.5 67 2.5 N 13 20 7 11 1017.8 1018.8 0.4
27/06:00pm 8.4 3.0 1.3 61 3.0 W 19 26 10 14 1017.1 1018.2 0.4
27/05:30pm 8.8 4.6 1.5 60 3.1 NW 13 20 7 11 1016.7 1017.8 0.4
27/05:00pm 9.5 5.3 1.9 59 3.3 NNW 13 24 7 13 1015.9 1016.9 0.4
27/04:30pm 10.1 5.2 2.0 57 3.5 NW 17 28 9 15 1015.5 1016.6 0.4
27/04:00pm 11.3 5.9 2.3 54 4.0 WNW 20 32 11 17 1014.7 1015.7 0.4
27/03:30pm 10.8 6.0 2.6 57 3.7 NW 17 24 9 13 1014.2 1015.2 0.4
27/03:00pm 10.6 6.3 3.2 60 3.3 NNW 15 22 8 12 1013.7 1014.8 0.4
27/02:30pm 10.5 5.9 3.5 62 3.2 NNW 17 28 9 15 1013.4 1014.4 0.4
27/02:00pm 11.2 7.4 4.0 61 3.3 NW 13 20 7 11 1013.1 1014.1 0.4
27/01:30pm 10.7 6.2 4.0 63 3.1 NNW 17 24 9 13 1012.8 1013.8 0.4
27/01:00pm 10.0 5.8 4.0 66 2.7 NNW 15 24 8 13 1012.9 1013.9 0.4
27/12:30pm 10.3 5.2 3.3 62 3.2 WNW 19 28 10 15 1012.9 1013.9 0.4
27/12:00pm 10.1 5.1 3.8 65 2.9 NW 19 28 10 15 1012.6 1013.6 0.4
27/11:30am 9.6 6.2 3.8 67 2.6 NNW 11 17 6 9 1012.7 1013.7 0.4
27/11:00am 9.4 5.7 4.6 72 2.2 NW 13 22 7 12 1012.5 1013.5 0.4
27/10:30am 9.4 5.2 5.6 77 1.8 NNW 17 26 9 14 1012.3 1013.3 0.4
27/10:00am 8.0 5.3 5.6 85 1.1 NNW 9 17 5 9 1012.1 1013.0 0.4
27/09:30am 6.9 4.7 5.5 91 0.6 WNW 6 7 3 4 1011.5 1012.5 0.2
27/09:00am 6.7 4.4 4.9 88 0.8 NW 6 15 3 8 1011.0 1012.0 3.6
27/08:30am 6.7 3.3 4.0 83 1.2 NNW 11 19 6 10 1010.5 1011.4 3.4
27/08:00am 6.1 3.2 4.7 91 0.6 NW 9 20 5 11 1010.0 1011.0 3.4
27/07:30am 5.2 2.2 4.2 93 0.4 NNW 9 17 5 9 1009.7 1010.7 3.4
27/07:00am 5.0 1.8 4.9 99 0.0 N 11 17 6 9 1009.1 1010.0 3.4
27/06:30am 5.0 2.1 4.9 99 0.0 WNW 9 13 5 7 1009.4 1010.4 3.4
27/06:00am 4.9 3.0 4.8 99 0.0 WNW 4 9 2 5 1009.5 1010.5 3.2
27/05:30am 4.8 1.9 4.4 97 0.2 N 9 15 5 8 1009.2 1010.1 2.6
27/05:00am 4.6 2.1 3.9 95 0.3 N 6 11 3 6 1009.3 1010.2 2.0
27/04:30am 4.5 1.4 3.5 93 0.4 NNE 9 13 5 7 1009.6 1010.6 1.4
27/04:00am 4.4 1.2 3.2 92 0.5 N 9 15 5 8 1010.0 1011.0 0.8
27/03:30am 4.5 0.9 3.0 90 0.6 N 11 19 6 10 1010.3 1011.2 0.8
27/03:00am 4.7 1.5 2.9 88 0.8 N 9 15 5 8 1011.0 1012.0 0.6
27/02:30am 4.9 1.7 2.9 87 0.8 NNE 9 13 5 7 1011.3 1012.3 0.2
27/02:00am 5.0 1.7 2.5 84 1.1 NW 9 17 5 9 1011.6 1012.6 0.2
27/01:30am 5.6 2.3 2.3 79 1.4 NW 9 13 5 7 1012.1 1013.0 0.0
27/01:00am 6.0 1.7 1.3 72 1.9 NW 13 19 7 10 1012.2 1013.1 0.0
27/12:30am 6.3 0.9 1.0 69 2.2 NW 19 32 10 17 1011.7 1012.7 0.0
27/12:00am 6.6 1.0 0.9 67 2.3 WNW 20 32 11 17 1012.2 1013.1 0.0
 
Date/Time
EST
Temp
°C
App
Temp
°C
Dew
Point
°C
Rel
Hum
%
Delta-T
°C
Wind Press
QNH
hPa
Press
MSL
hPa
Rain since
9am
mm
Dir  Spd
km/h
Gust
km/h
Spd
kts
Gust
kts
26/11:30pm 6.5 1.4 0.8 67 2.3 NW 17 28 9 15 1012.4 1013.4 0.0
26/11:00pm 6.3 2.3 0.4 66 2.4 NNW 11 26 6 14 1012.6 1013.6 0.0
26/10:30pm 6.2 1.9 0.9 69 2.2 N 13 22 7 12 1012.7 1013.7 0.0
26/10:00pm 6.3 1.3 1.2 70 2.1 NW 17 26 9 14 1013.0 1014.0 0.0
26/09:30pm 6.8 1.7 0.7 65 2.5 NW 17 28 9 15 1013.4 1014.4 0.0
26/09:00pm 6.4 2.8 0.9 68 2.3 N 9 15 5 8 1013.3 1014.3 0.0
26/08:30pm 6.3 2.7 0.8 68 2.3 NW 9 17 5 9 1013.5 1014.5 0.0
26/08:00pm 6.5 2.5 0.8 67 2.3 NW 11 15 6 8 1013.5 1014.5 0.0
26/07:30pm 6.6 2.6 0.3 64 2.6 NW 11 17 6 9 1013.5 1014.5 0.0
26/07:00pm 6.7 1.4 -0.3 61 2.8 NW 17 26 9 14 1013.3 1014.3 0.0
26/06:30pm 6.7 1.8 -0.3 61 2.8 NW 15 22 8 12 1013.3 1014.3 0.0
26/06:00pm 6.9 1.2 -0.8 58 3.1 NW 19 26 10 14 1013.4 1014.4 0.0
26/05:30pm 6.9 1.5 -1.3 56 3.2 NW 17 24 9 13 1013.1 1014.1 0.0
26/05:00pm 7.1 1.8 -0.8 57 3.1 NW 17 28 9 15 1012.9 1013.9 0.0
26/04:30pm 7.8 1.5 -1.2 53 3.6 NW 22 39 12 21 1012.6 1013.6 0.0
26/04:00pm 8.5 2.2 -0.8 52 3.8 WNW 22 37 12 20 1012.3 1013.3 0.0
26/03:30pm 7.9 1.3 -0.6 55 3.4 WNW 24 35 13 19 1012.2 1013.1 0.0
26/03:00pm 8.8 2.1 -1.0 50 3.9 WNW 24 39 13 21 1011.9 1012.9 0.0
26/02:30pm 8.9 1.8 -0.9 50 4.0 WNW 26 39 14 21 1012.3 1013.3 0.0
26/02:00pm 9.1 2.4 -1.3 48 4.2 WNW 24 39 13 21 1012.2 1013.1 0.0
26/01:30pm 9.3 2.6 -1.4 47 4.3 W 24 35 13 19 1012.9 1013.9 0.0
26/01:00pm 9.3 3.6 -0.8 49 4.1 NW 19 28 10 15 1013.3 1014.3 0.0
26/12:30pm 8.3 0.4 -1.5 50 3.9 NW 30 44 16 24 1013.4 1014.4 0.0
26/12:00pm 9.0 2.1 0.2 54 3.6 WNW 26 37 14 20 1013.7 1014.8 0.0
26/11:30am 8.8 2.7 0.3 55 3.5 WNW 22 35 12 19 1014.2 1015.2 0.0
26/11:00am 8.6 2.9 0.6 57 3.3 NW 20 33 11 18 1014.6 1015.6 0.0
26/10:30am 7.7 1.8 -0.8 55 3.4 NW 20 32 11 17 1014.8 1015.8 0.0
26/10:00am 7.2 1.5 -0.7 57 3.1 NNW 19 28 10 15 1015.3 1016.4 0.0
26/09:30am 6.9 1.9 -1.0 57 3.1 NNW 15 30 8 16 1015.2 1016.3 0.0
26/09:00am 6.4 1.0 -1.0 59 2.9 NW 17 26 9 14 1015.1 1016.1 0.4
26/08:30am 6.3 2.0 -1.3 58 3.0 N 11 20 6 11 1015.2 1016.3 0.4
26/08:00am 5.7 0.7 -1.4 60 2.7 WNW 15 22 8 12 1014.6 1015.6 0.4
26/07:30am 4.8 -0.1 -0.6 68 2.1 WNW 15 32 8 17 1014.4 1015.4 0.4
26/07:00am 4.9 0.1 -0.1 70 2.0 NW 15 26 8 14 1014.0 1015.0 0.4
26/06:30am 4.9 -0.6 0.3 72 1.8 NNW 19 33 10 18 1012.9 1013.9 0.4
26/06:00am 5.5 0.1 1.1 73 1.8 NW 19 33 10 18 1012.1 1013.0 0.4
26/05:30am 5.5 0.7 2.8 83 1.2 NW 17 26 9 14 1011.8 1012.8 0.4
26/05:00am 5.6 1.7 3.6 87 0.9 NW 13 22 7 12 1011.8 1012.8 0.4
26/04:30am 5.6 2.1 3.6 87 0.9 NNW 11 20 6 11 1011.5 1012.5 0.2
26/04:00am 5.9 3.0 4.5 91 0.6 NNW 9 15 5 8 1011.6 1012.6 0.2
26/03:30am 5.9 2.6 4.4 90 0.7 NNW 11 20 6 11 1011.3 1012.3 0.2
26/03:00am 6.0 2.3 4.2 88 0.8 N 13 20 7 11 1011.2 1012.2 0.0
26/02:30am 6.1 2.7 3.9 86 1.0 NNW 11 19 6 10 1011.4 1012.4 0.0
26/02:00am 6.3 3.3 4.0 85 1.0 NNW 9 17 5 9 1011.7 1012.7 0.0
26/01:30am 6.4 3.0 3.9 84 1.1 NNW 11 20 6 11 1011.7 1012.7 0.0
26/01:00am 6.4 2.3 4.1 85 1.0 NNW 15 26 8 14 1011.6 1012.6 0.0
26/12:30am 6.5 1.9 3.8 83 1.2 NW 17 28 9 15 1011.5 1012.5 0.0
26/12:00am 6.8 1.2 3.2 78 1.6 NW 22 39 12 21 1011.5 1012.5 0.0
 
Date/Time
EST
Temp
°C
App
Temp
°C
Dew
Point
°C
Rel
Hum
%
Delta-T
°C
Wind Press
QNH
hPa
Press
MSL
hPa
Rain since
9am
mm
Dir  Spd
km/h
Gust
km/h
Spd
kts
Gust
kts
25/11:30pm 6.4 1.2 2.7 77 1.6 NW 19 32 10 17 1011.3 1012.3 0.0
25/11:00pm 6.3 0.9 2.6 77 1.6 NW 20 35 11 19 1011.5 1012.5 0.0
25/10:30pm 6.7 0.5 2.0 72 2.0 NW 24 39 13 21 1012.1 1013.0 0.0
25/10:00pm 6.8 0.5 1.7 70 2.1 NW 24 35 13 19 1011.9 1012.9 0.0
25/09:30pm 6.7 1.3 2.4 74 1.8 NNW 20 35 11 19 1012.3 1013.3 0.0
25/09:00pm 6.8 1.5 2.1 72 2.0 NW 19 28 10 15 1012.5 1013.5 0.0
25/08:30pm 6.7 0.7 1.0 67 2.4 NNW 22 43 12 23 1012.4 1013.4 0.0
25/08:00pm 7.1 0.7 0.8 64 2.6 NW 24 41 13 22 1012.3 1013.3 0.0
25/07:30pm 7.3 0.1 1.0 64 2.6 NW 28 44 15 24 1012.3 1013.3 0.0
25/07:00pm 7.3 2.0 3.2 75 1.8 NW 20 37 11 20 1011.9 1012.9 0.0
25/06:30pm 7.3 2.0 3.2 75 1.8 NW 20 33 11 18 1011.5 1012.5 0.0
25/06:00pm 7.4 0.6 2.9 73 2.0 NW 28 39 15 21 1011.2 1012.2 0.0
25/05:30pm 7.1 1.1 3.2 76 1.7 NW 24 37 13 20 1010.6 1011.5 0.0
25/05:00pm 7.5 2.6 3.9 78 1.6 NW 19 35 10 19 1010.8 1011.7 0.0

Other Formats:

Comma delimited format used in spreadsheet applications
http://www.bom.gov.au/fwo/IDN60801/IDN60801.94925.axf

JavaScript Object Notation format (JSON) in row-major order
http://www.bom.gov.au/fwo/IDN60801/IDN60801.94925.json